sensor_id;sensor_type;location;lat;lon;timestamp;P1;durP1;ratioP1;P2;durP2;ratioP2
52586;SDS011;38480;52.724;6.436;2023-12-20T00:00:00;19.80;;;3.13;;
52586;SDS011;38480;52.724;6.436;2023-12-20T00:02:26;25.73;;;3.53;;
52586;SDS011;38480;52.724;6.436;2023-12-20T00:04:52;20.00;;;4.27;;
52586;SDS011;38480;52.724;6.436;2023-12-20T00:07:18;25.10;;;3.50;;
52586;SDS011;38480;52.724;6.436;2023-12-20T00:09:44;16.83;;;3.10;;
52586;SDS011;38480;52.724;6.436;2023-12-20T00:12:10;13.17;;;3.73;;
52586;SDS011;38480;52.724;6.436;2023-12-20T00:14:36;24.90;;;3.20;;
52586;SDS011;38480;52.724;6.436;2023-12-20T00:17:02;17.63;;;3.10;;
52586;SDS011;38480;52.724;6.436;2023-12-20T00:19:28;21.83;;;3.73;;
52586;SDS011;38480;52.724;6.436;2023-12-20T00:21:54;17.67;;;3.40;;
52586;SDS011;38480;52.724;6.436;2023-12-20T00:24:20;18.60;;;2.70;;
52586;SDS011;38480;52.724;6.436;2023-12-20T00:26:46;21.53;;;2.70;;
52586;SDS011;38480;52.724;6.436;2023-12-20T00:29:12;13.67;;;3.50;;
52586;SDS011;38480;52.724;6.436;2023-12-20T00:31:38;25.23;;;3.30;;
52586;SDS011;38480;52.724;6.436;2023-12-20T00:34:04;20.57;;;3.53;;
52586;SDS011;38480;52.724;6.436;2023-12-20T00:36:30;20.03;;;3.17;;
52586;SDS011;38480;52.724;6.436;2023-12-20T00:38:56;18.80;;;3.53;;
52586;SDS011;38480;52.724;6.436;2023-12-20T00:41:22;16.70;;;3.67;;
52586;SDS011;38480;52.724;6.436;2023-12-20T00:43:48;27.47;;;4.27;;
52586;SDS011;38480;52.724;6.436;2023-12-20T00:46:14;20.80;;;3.70;;
52586;SDS011;38480;52.724;6.436;2023-12-20T00:48:40;21.07;;;3.57;;
52586;SDS011;38480;52.724;6.436;2023-12-20T00:51:07;25.37;;;4.40;;
52586;SDS011;38480;52.724;6.436;2023-12-20T00:53:33;27.03;;;3.30;;
52586;SDS011;38480;52.724;6.436;2023-12-20T00:55:59;18.93;;;3.13;;
52586;SDS011;38480;52.724;6.436;2023-12-20T00:58:25;20.60;;;2.93;;
52586;SDS011;38480;52.724;6.436;2023-12-20T01:00:52;14.87;;;2.67;;
52586;SDS011;38480;52.724;6.436;2023-12-20T01:03:19;25.10;;;3.33;;
52586;SDS011;38480;52.724;6.436;2023-12-20T01:05:45;20.77;;;3.33;;
52586;SDS011;38480;52.724;6.436;2023-12-20T01:08:11;25.83;;;4.13;;
52586;SDS011;38480;52.724;6.436;2023-12-20T01:10:37;21.00;;;3.67;;
52586;SDS011;38480;52.724;6.436;2023-12-20T01:13:03;22.87;;;3.73;;
52586;SDS011;38480;52.724;6.436;2023-12-20T01:15:29;26.03;;;4.13;;
52586;SDS011;38480;52.724;6.436;2023-12-20T01:17:55;22.83;;;4.20;;
52586;SDS011;38480;52.724;6.436;2023-12-20T01:20:23;19.53;;;3.57;;
52586;SDS011;38480;52.724;6.436;2023-12-20T01:22:49;18.90;;;2.93;;
52586;SDS011;38480;52.724;6.436;2023-12-20T01:25:15;23.43;;;4.30;;
52586;SDS011;38480;52.724;6.436;2023-12-20T01:27:41;22.27;;;3.60;;
52586;SDS011;38480;52.724;6.436;2023-12-20T01:30:07;23.70;;;3.40;;
52586;SDS011;38480;52.724;6.436;2023-12-20T01:32:34;24.73;;;4.23;;
52586;SDS011;38480;52.724;6.436;2023-12-20T01:35:00;22.00;;;4.03;;
52586;SDS011;38480;52.724;6.436;2023-12-20T01:37:25;29.03;;;4.03;;
52586;SDS011;38480;52.724;6.436;2023-12-20T01:39:54;19.57;;;3.67;;
52586;SDS011;38480;52.724;6.436;2023-12-20T01:42:20;24.90;;;3.67;;
52586;SDS011;38480;52.724;6.436;2023-12-20T01:44:47;16.27;;;4.20;;
52586;SDS011;38480;52.724;6.436;2023-12-20T01:47:13;26.97;;;7.23;;
52586;SDS011;38480;52.724;6.436;2023-12-20T01:49:39;25.93;;;5.27;;
52586;SDS011;38480;52.724;6.436;2023-12-20T01:52:05;24.37;;;4.00;;
52586;SDS011;38480;52.724;6.436;2023-12-20T01:54:32;27.10;;;5.10;;
52586;SDS011;38480;52.724;6.436;2023-12-20T01:56:58;21.80;;;4.30;;
52586;SDS011;38480;52.724;6.436;2023-12-20T01:59:24;30.27;;;3.93;;
52586;SDS011;38480;52.724;6.436;2023-12-20T02:01:50;21.43;;;3.60;;
52586;SDS011;38480;52.724;6.436;2023-12-20T02:04:16;29.37;;;4.73;;
52586;SDS011;38480;52.724;6.436;2023-12-20T02:06:42;30.30;;;5.93;;
52586;SDS011;38480;52.724;6.436;2023-12-20T02:09:08;23.70;;;4.33;;
52586;SDS011;38480;52.724;6.436;2023-12-20T02:11:34;29.23;;;5.57;;
52586;SDS011;38480;52.724;6.436;2023-12-20T02:14:00;25.00;;;3.33;;
52586;SDS011;38480;52.724;6.436;2023-12-20T02:16:26;28.13;;;5.37;;
52586;SDS011;38480;52.724;6.436;2023-12-20T02:18:52;19.43;;;3.57;;
52586;SDS011;38480;52.724;6.436;2023-12-20T02:21:23;15.53;;;3.10;;
52586;SDS011;38480;52.724;6.436;2023-12-20T02:23:49;23.10;;;4.60;;
52586;SDS011;38480;52.724;6.436;2023-12-20T02:26:15;13.17;;;4.13;;
52586;SDS011;38480;52.724;6.436;2023-12-20T02:28:43;23.10;;;3.30;;
52586;SDS011;38480;52.724;6.436;2023-12-20T02:31:09;25.17;;;3.33;;
52586;SDS011;38480;52.724;6.436;2023-12-20T02:33:35;22.60;;;3.60;;
52586;SDS011;38480;52.724;6.436;2023-12-20T02:36:01;28.87;;;4.17;;
52586;SDS011;38480;52.724;6.436;2023-12-20T02:38:27;25.57;;;4.60;;
52586;SDS011;38480;52.724;6.436;2023-12-20T02:40:53;29.70;;;4.20;;
52586;SDS011;38480;52.724;6.436;2023-12-20T02:43:19;29.30;;;5.80;;
52586;SDS011;38480;52.724;6.436;2023-12-20T02:45:45;25.10;;;4.47;;
52586;SDS011;38480;52.724;6.436;2023-12-20T02:48:11;31.50;;;5.33;;
52586;SDS011;38480;52.724;6.436;2023-12-20T02:50:37;27.13;;;4.80;;
52586;SDS011;38480;52.724;6.436;2023-12-20T02:53:03;33.70;;;5.30;;
52586;SDS011;38480;52.724;6.436;2023-12-20T02:55:29;36.90;;;5.07;;
52586;SDS011;38480;52.724;6.436;2023-12-20T02:57:55;37.90;;;5.10;;
52586;SDS011;38480;52.724;6.436;2023-12-20T03:00:21;40.30;;;5.23;;
52586;SDS011;38480;52.724;6.436;2023-12-20T03:02:47;32.53;;;5.90;;
52586;SDS011;38480;52.724;6.436;2023-12-20T03:05:13;33.70;;;6.10;;
52586;SDS011;38480;52.724;6.436;2023-12-20T03:07:39;34.10;;;6.10;;
52586;SDS011;38480;52.724;6.436;2023-12-20T03:10:05;36.70;;;6.33;;
52586;SDS011;38480;52.724;6.436;2023-12-20T03:12:33;30.03;;;5.43;;
52586;SDS011;38480;52.724;6.436;2023-12-20T03:14:59;36.93;;;8.03;;
52586;SDS011;38480;52.724;6.436;2023-12-20T03:17:25;36.17;;;6.73;;
52586;SDS011;38480;52.724;6.436;2023-12-20T03:19:51;24.83;;;4.67;;
52586;SDS011;38480;52.724;6.436;2023-12-20T03:22:17;31.70;;;5.67;;
52586;SDS011;38480;52.724;6.436;2023-12-20T03:24:43;36.33;;;5.70;;
52586;SDS011;38480;52.724;6.436;2023-12-20T03:27:09;31.33;;;4.97;;
52586;SDS011;38480;52.724;6.436;2023-12-20T03:29:35;38.10;;;5.50;;
52586;SDS011;38480;52.724;6.436;2023-12-20T03:32:01;34.53;;;7.60;;
52586;SDS011;38480;52.724;6.436;2023-12-20T03:34:27;35.90;;;5.93;;
52586;SDS011;38480;52.724;6.436;2023-12-20T03:36:54;32.77;;;5.80;;
52586;SDS011;38480;52.724;6.436;2023-12-20T03:39:20;32.10;;;5.07;;
52586;SDS011;38480;52.724;6.436;2023-12-20T03:41:46;43.70;;;6.03;;
52586;SDS011;38480;52.724;6.436;2023-12-20T03:44:12;38.33;;;7.47;;
52586;SDS011;38480;52.724;6.436;2023-12-20T03:46:38;43.80;;;7.13;;
52586;SDS011;38480;52.724;6.436;2023-12-20T03:49:04;27.37;;;6.20;;
52586;SDS011;38480;52.724;6.436;2023-12-20T03:51:30;44.53;;;6.13;;
52586;SDS011;38480;52.724;6.436;2023-12-20T03:53:56;42.40;;;6.00;;
52586;SDS011;38480;52.724;6.436;2023-12-20T03:56:22;46.57;;;7.43;;
52586;SDS011;38480;52.724;6.436;2023-12-20T03:58:48;31.10;;;5.33;;
52586;SDS011;38480;52.724;6.436;2023-12-20T04:01:14;40.67;;;7.30;;
52586;SDS011;38480;52.724;6.436;2023-12-20T04:03:40;33.87;;;8.67;;
52586;SDS011;38480;52.724;6.436;2023-12-20T04:06:06;45.03;;;5.93;;
52586;SDS011;38480;52.724;6.436;2023-12-20T04:08:32;42.63;;;5.97;;
52586;SDS011;38480;52.724;6.436;2023-12-20T04:10:58;36.80;;;7.13;;
52586;SDS011;38480;52.724;6.436;2023-12-20T04:13:24;30.13;;;6.27;;
52586;SDS011;38480;52.724;6.436;2023-12-20T04:15:50;33.47;;;6.07;;
52586;SDS011;38480;52.724;6.436;2023-12-20T04:18:16;37.17;;;7.03;;
52586;SDS011;38480;52.724;6.436;2023-12-20T04:20:42;29.57;;;5.47;;
52586;SDS011;38480;52.724;6.436;2023-12-20T04:23:08;38.23;;;7.27;;
52586;SDS011;38480;52.724;6.436;2023-12-20T04:25:34;34.80;;;6.30;;
52586;SDS011;38480;52.724;6.436;2023-12-20T04:28:00;43.40;;;7.13;;
52586;SDS011;38480;52.724;6.436;2023-12-20T04:30:26;51.67;;;7.73;;
52586;SDS011;38480;52.724;6.436;2023-12-20T04:32:52;38.03;;;7.23;;
52586;SDS011;38480;52.724;6.436;2023-12-20T04:35:18;38.20;;;6.83;;
52586;SDS011;38480;52.724;6.436;2023-12-20T04:37:44;27.80;;;5.23;;
52586;SDS011;38480;52.724;6.436;2023-12-20T04:40:10;51.13;;;7.43;;
52586;SDS011;38480;52.724;6.436;2023-12-20T04:42:36;29.37;;;6.53;;
52586;SDS011;38480;52.724;6.436;2023-12-20T04:45:02;33.47;;;5.77;;
52586;SDS011;38480;52.724;6.436;2023-12-20T04:47:28;38.17;;;6.47;;
52586;SDS011;38480;52.724;6.436;2023-12-20T04:49:54;30.27;;;8.20;;
52586;SDS011;38480;52.724;6.436;2023-12-20T04:52:21;31.03;;;6.27;;
52586;SDS011;38480;52.724;6.436;2023-12-20T04:54:47;35.13;;;6.33;;
52586;SDS011;38480;52.724;6.436;2023-12-20T04:57:13;33.13;;;5.93;;
52586;SDS011;38480;52.724;6.436;2023-12-20T04:59:39;39.20;;;6.83;;
52586;SDS011;38480;52.724;6.436;2023-12-20T05:02:06;37.37;;;8.27;;
52586;SDS011;38480;52.724;6.436;2023-12-20T05:04:32;37.67;;;7.23;;
52586;SDS011;38480;52.724;6.436;2023-12-20T05:06:58;33.43;;;7.67;;
52586;SDS011;38480;52.724;6.436;2023-12-20T05:09:24;33.17;;;6.33;;
52586;SDS011;38480;52.724;6.436;2023-12-20T05:11:50;43.73;;;6.90;;
52586;SDS011;38480;52.724;6.436;2023-12-20T05:14:16;31.13;;;5.97;;
52586;SDS011;38480;52.724;6.436;2023-12-20T05:16:42;39.40;;;6.60;;
52586;SDS011;38480;52.724;6.436;2023-12-20T05:19:08;31.10;;;7.20;;
52586;SDS011;38480;52.724;6.436;2023-12-20T05:21:34;34.20;;;6.10;;
52586;SDS011;38480;52.724;6.436;2023-12-20T05:24:00;43.70;;;7.03;;
52586;SDS011;38480;52.724;6.436;2023-12-20T05:26:26;32.77;;;6.60;;
52586;SDS011;38480;52.724;6.436;2023-12-20T05:28:54;40.37;;;6.77;;
52586;SDS011;38480;52.724;6.436;2023-12-20T05:31:20;43.57;;;6.93;;
52586;SDS011;38480;52.724;6.436;2023-12-20T05:33:46;34.37;;;6.87;;
52586;SDS011;38480;52.724;6.436;2023-12-20T05:36:12;36.73;;;7.67;;
52586;SDS011;38480;52.724;6.436;2023-12-20T05:38:40;27.17;;;5.73;;
52586;SDS011;38480;52.724;6.436;2023-12-20T05:41:06;44.23;;;8.73;;
52586;SDS011;38480;52.724;6.436;2023-12-20T05:43:32;30.47;;;6.10;;
52586;SDS011;38480;52.724;6.436;2023-12-20T05:45:58;40.43;;;6.27;;
52586;SDS011;38480;52.724;6.436;2023-12-20T05:48:24;33.03;;;7.07;;
52586;SDS011;38480;52.724;6.436;2023-12-20T05:50:50;36.87;;;5.53;;
52586;SDS011;38480;52.724;6.436;2023-12-20T05:53:16;41.97;;;7.10;;
52586;SDS011;38480;52.724;6.436;2023-12-20T05:55:42;42.40;;;7.53;;
52586;SDS011;38480;52.724;6.436;2023-12-20T05:58:08;37.60;;;7.03;;
52586;SDS011;38480;52.724;6.436;2023-12-20T06:00:34;33.53;;;6.43;;
52586;SDS011;38480;52.724;6.436;2023-12-20T06:03:00;29.40;;;5.63;;
52586;SDS011;38480;52.724;6.436;2023-12-20T06:05:26;38.90;;;6.70;;
52586;SDS011;38480;52.724;6.436;2023-12-20T06:07:52;34.37;;;5.80;;
52586;SDS011;38480;52.724;6.436;2023-12-20T06:10:19;39.10;;;6.50;;
52586;SDS011;38480;52.724;6.436;2023-12-20T06:12:47;43.30;;;7.10;;
52586;SDS011;38480;52.724;6.436;2023-12-20T06:15:15;33.37;;;7.07;;
52586;SDS011;38480;52.724;6.436;2023-12-20T06:17:41;38.97;;;6.60;;
52586;SDS011;38480;52.724;6.436;2023-12-20T06:20:07;38.93;;;7.63;;
52586;SDS011;38480;52.724;6.436;2023-12-20T06:22:34;46.50;;;6.63;;
52586;SDS011;38480;52.724;6.436;2023-12-20T06:25:00;37.17;;;7.27;;
52586;SDS011;38480;52.724;6.436;2023-12-20T06:27:26;38.63;;;5.53;;
52586;SDS011;38480;52.724;6.436;2023-12-20T06:29:52;34.83;;;6.07;;
52586;SDS011;38480;52.724;6.436;2023-12-20T06:32:18;33.30;;;6.43;;
52586;SDS011;38480;52.724;6.436;2023-12-20T06:34:44;30.43;;;5.93;;
52586;SDS011;38480;52.724;6.436;2023-12-20T06:37:10;23.80;;;5.67;;
52586;SDS011;38480;52.724;6.436;2023-12-20T06:39:36;31.60;;;5.47;;
52586;SDS011;38480;52.724;6.436;2023-12-20T06:42:02;34.67;;;5.10;;
52586;SDS011;38480;52.724;6.436;2023-12-20T06:44:28;32.80;;;6.47;;
52586;SDS011;38480;52.724;6.436;2023-12-20T06:46:54;35.70;;;6.90;;
52586;SDS011;38480;52.724;6.436;2023-12-20T06:49:20;39.03;;;6.77;;
52586;SDS011;38480;52.724;6.436;2023-12-20T06:51:46;30.53;;;5.57;;
52586;SDS011;38480;52.724;6.436;2023-12-20T06:54:12;39.63;;;5.33;;
52586;SDS011;38480;52.724;6.436;2023-12-20T06:56:38;36.73;;;6.50;;
52586;SDS011;38480;52.724;6.436;2023-12-20T06:59:04;31.07;;;5.67;;
52586;SDS011;38480;52.724;6.436;2023-12-20T07:01:31;27.53;;;4.90;;
52586;SDS011;38480;52.724;6.436;2023-12-20T07:03:57;28.17;;;6.03;;
52586;SDS011;38480;52.724;6.436;2023-12-20T07:06:23;29.37;;;5.27;;
52586;SDS011;38480;52.724;6.436;2023-12-20T07:08:50;23.57;;;5.27;;
52586;SDS011;38480;52.724;6.436;2023-12-20T07:11:16;37.83;;;6.43;;
52586;SDS011;38480;52.724;6.436;2023-12-20T07:13:43;31.43;;;6.53;;
52586;SDS011;38480;52.724;6.436;2023-12-20T07:16:09;28.70;;;5.50;;
52586;SDS011;38480;52.724;6.436;2023-12-20T07:18:34;39.67;;;6.10;;
52586;SDS011;38480;52.724;6.436;2023-12-20T07:21:00;22.53;;;4.87;;
52586;SDS011;38480;52.724;6.436;2023-12-20T07:23:27;36.53;;;6.57;;
52586;SDS011;38480;52.724;6.436;2023-12-20T07:25:52;36.33;;;5.83;;
52586;SDS011;38480;52.724;6.436;2023-12-20T07:28:18;29.97;;;4.83;;
52586;SDS011;38480;52.724;6.436;2023-12-20T07:30:44;36.40;;;6.40;;
52586;SDS011;38480;52.724;6.436;2023-12-20T07:33:10;31.10;;;6.77;;
52586;SDS011;38480;52.724;6.436;2023-12-20T07:35:37;34.00;;;5.37;;
52586;SDS011;38480;52.724;6.436;2023-12-20T07:38:03;35.03;;;6.10;;
52586;SDS011;38480;52.724;6.436;2023-12-20T07:40:29;33.20;;;6.33;;
52586;SDS011;38480;52.724;6.436;2023-12-20T07:42:55;31.07;;;7.07;;
52586;SDS011;38480;52.724;6.436;2023-12-20T07:45:23;35.07;;;6.00;;
52586;SDS011;38480;52.724;6.436;2023-12-20T07:47:49;37.77;;;5.40;;
52586;SDS011;38480;52.724;6.436;2023-12-20T07:50:15;42.33;;;6.87;;
52586;SDS011;38480;52.724;6.436;2023-12-20T07:52:41;37.30;;;5.33;;
52586;SDS011;38480;52.724;6.436;2023-12-20T07:55:07;24.43;;;4.60;;
52586;SDS011;38480;52.724;6.436;2023-12-20T07:57:33;31.97;;;7.13;;
52586;SDS011;38480;52.724;6.436;2023-12-20T07:59:59;33.57;;;5.33;;
52586;SDS011;38480;52.724;6.436;2023-12-20T08:02:25;32.70;;;5.37;;
52586;SDS011;38480;52.724;6.436;2023-12-20T08:04:51;30.30;;;5.50;;
52586;SDS011;38480;52.724;6.436;2023-12-20T08:07:17;41.33;;;7.10;;
52586;SDS011;38480;52.724;6.436;2023-12-20T08:09:43;48.60;;;7.10;;
52586;SDS011;38480;52.724;6.436;2023-12-20T08:12:09;32.77;;;6.93;;
52586;SDS011;38480;52.724;6.436;2023-12-20T08:14:36;40.47;;;6.00;;
52586;SDS011;38480;52.724;6.436;2023-12-20T08:17:02;31.20;;;6.80;;
52586;SDS011;38480;52.724;6.436;2023-12-20T08:19:28;35.73;;;6.90;;
52586;SDS011;38480;52.724;6.436;2023-12-20T08:21:54;35.90;;;6.53;;
52586;SDS011;38480;52.724;6.436;2023-12-20T08:24:20;26.73;;;5.77;;
52586;SDS011;38480;52.724;6.436;2023-12-20T08:26:46;32.03;;;5.43;;
52586;SDS011;38480;52.724;6.436;2023-12-20T08:29:13;28.77;;;5.53;;
52586;SDS011;38480;52.724;6.436;2023-12-20T08:31:39;38.50;;;5.60;;
52586;SDS011;38480;52.724;6.436;2023-12-20T08:34:05;42.40;;;6.80;;
52586;SDS011;38480;52.724;6.436;2023-12-20T08:36:31;40.80;;;6.00;;
52586;SDS011;38480;52.724;6.436;2023-12-20T08:38:57;27.40;;;6.80;;
52586;SDS011;38480;52.724;6.436;2023-12-20T08:41:25;29.07;;;5.03;;
52586;SDS011;38480;52.724;6.436;2023-12-20T08:43:51;35.47;;;6.70;;
52586;SDS011;38480;52.724;6.436;2023-12-20T08:46:17;31.50;;;6.10;;
52586;SDS011;38480;52.724;6.436;2023-12-20T08:48:43;38.60;;;8.13;;
52586;SDS011;38480;52.724;6.436;2023-12-20T08:51:10;31.80;;;5.70;;
52586;SDS011;38480;52.724;6.436;2023-12-20T08:53:36;30.83;;;5.10;;
52586;SDS011;38480;52.724;6.436;2023-12-20T08:56:02;40.07;;;6.10;;
52586;SDS011;38480;52.724;6.436;2023-12-20T08:58:28;29.17;;;5.90;;
52586;SDS011;38480;52.724;6.436;2023-12-20T09:00:54;25.33;;;6.00;;
52586;SDS011;38480;52.724;6.436;2023-12-20T09:03:20;25.70;;;6.30;;
52586;SDS011;38480;52.724;6.436;2023-12-20T09:05:46;34.43;;;6.07;;
52586;SDS011;38480;52.724;6.436;2023-12-20T09:08:12;27.80;;;5.73;;
52586;SDS011;38480;52.724;6.436;2023-12-20T09:10:38;30.07;;;5.30;;
52586;SDS011;38480;52.724;6.436;2023-12-20T09:13:04;25.07;;;5.20;;
52586;SDS011;38480;52.724;6.436;2023-12-20T09:15:31;25.73;;;5.40;;
52586;SDS011;38480;52.724;6.436;2023-12-20T09:17:59;33.50;;;5.53;;
52586;SDS011;38480;52.724;6.436;2023-12-20T09:20:25;26.43;;;5.13;;
52586;SDS011;38480;52.724;6.436;2023-12-20T09:22:52;30.70;;;5.47;;
52586;SDS011;38480;52.724;6.436;2023-12-20T09:25:18;35.30;;;5.53;;
52586;SDS011;38480;52.724;6.436;2023-12-20T09:27:44;20.90;;;4.63;;
52586;SDS011;38480;52.724;6.436;2023-12-20T09:30:11;31.07;;;5.30;;
52586;SDS011;38480;52.724;6.436;2023-12-20T09:32:37;33.60;;;7.03;;
52586;SDS011;38480;52.724;6.436;2023-12-20T09:35:03;22.83;;;5.40;;
52586;SDS011;38480;52.724;6.436;2023-12-20T09:37:31;22.07;;;4.43;;
52586;SDS011;38480;52.724;6.436;2023-12-20T09:39:57;23.50;;;5.17;;
52586;SDS011;38480;52.724;6.436;2023-12-20T09:42:38;28.13;;;5.23;;
52586;SDS011;38480;52.724;6.436;2023-12-20T09:45:07;28.17;;;4.73;;
52586;SDS011;38480;52.724;6.436;2023-12-20T09:47:34;31.27;;;5.00;;
52586;SDS011;38480;52.724;6.436;2023-12-20T09:50:01;30.17;;;5.23;;
52586;SDS011;38480;52.724;6.436;2023-12-20T09:52:27;27.13;;;4.30;;
52586;SDS011;38480;52.724;6.436;2023-12-20T09:54:54;29.73;;;5.70;;
52586;SDS011;38480;52.724;6.436;2023-12-20T09:57:21;22.47;;;4.33;;
52586;SDS011;38480;52.724;6.436;2023-12-20T09:59:47;14.50;;;5.03;;
52586;SDS011;38480;52.724;6.436;2023-12-20T10:02:13;25.40;;;6.13;;
52586;SDS011;38480;52.724;6.436;2023-12-20T10:04:41;26.00;;;4.23;;
52586;SDS011;38480;52.724;6.436;2023-12-20T10:07:11;24.13;;;3.63;;
52586;SDS011;38480;52.724;6.436;2023-12-20T10:09:37;18.87;;;3.57;;
52586;SDS011;38480;52.724;6.436;2023-12-20T10:12:04;15.63;;;3.03;;
52586;SDS011;38480;52.724;6.436;2023-12-20T10:14:30;18.47;;;2.90;;
52586;SDS011;38480;52.724;6.436;2023-12-20T10:17:01;14.50;;;2.13;;
52586;SDS011;38480;52.724;6.436;2023-12-20T10:19:27;9.47;;;1.50;;
52586;SDS011;38480;52.724;6.436;2023-12-20T10:21:53;8.00;;;1.57;;
52586;SDS011;38480;52.724;6.436;2023-12-20T10:24:19;7.17;;;1.63;;
52586;SDS011;38480;52.724;6.436;2023-12-20T10:26:46;18.47;;;2.50;;
52586;SDS011;38480;52.724;6.436;2023-12-20T10:29:12;17.23;;;2.97;;
52586;SDS011;38480;52.724;6.436;2023-12-20T10:31:38;13.37;;;2.07;;
52586;SDS011;38480;52.724;6.436;2023-12-20T10:34:04;14.13;;;3.03;;
52586;SDS011;38480;52.724;6.436;2023-12-20T10:36:31;16.63;;;2.13;;
52586;SDS011;38480;52.724;6.436;2023-12-20T10:38:57;18.27;;;3.27;;
52586;SDS011;38480;52.724;6.436;2023-12-20T10:41:28;21.67;;;3.33;;
52586;SDS011;38480;52.724;6.436;2023-12-20T10:44:01;11.33;;;2.60;;
52586;SDS011;38480;52.724;6.436;2023-12-20T10:46:28;21.30;;;2.73;;
52586;SDS011;38480;52.724;6.436;2023-12-20T10:48:55;15.90;;;2.67;;
52586;SDS011;38480;52.724;6.436;2023-12-20T10:51:21;14.53;;;1.97;;
52586;SDS011;38480;52.724;6.436;2023-12-20T10:53:48;11.30;;;2.13;;
52586;SDS011;38480;52.724;6.436;2023-12-20T10:56:17;11.10;;;1.80;;
52586;SDS011;38480;52.724;6.436;2023-12-20T10:58:44;11.03;;;1.97;;
52586;SDS011;38480;52.724;6.436;2023-12-20T11:01:12;9.70;;;2.57;;
52586;SDS011;38480;52.724;6.436;2023-12-20T11:03:41;11.20;;;2.67;;
52586;SDS011;38480;52.724;6.436;2023-12-20T11:06:10;12.50;;;2.50;;
52586;SDS011;38480;52.724;6.436;2023-12-20T11:08:46;19.60;;;3.60;;
52586;SDS011;38480;52.724;6.436;2023-12-20T11:11:27;12.55;;;2.00;;
52586;SDS011;38480;52.724;6.436;2023-12-20T11:13:58;14.50;;;2.43;;
52586;SDS011;38480;52.724;6.436;2023-12-20T11:16:26;10.03;;;1.53;;
52586;SDS011;38480;52.724;6.436;2023-12-20T11:18:52;10.93;;;1.90;;
52586;SDS011;38480;52.724;6.436;2023-12-20T11:21:18;13.47;;;3.00;;
52586;SDS011;38480;52.724;6.436;2023-12-20T11:23:44;14.10;;;2.10;;
52586;SDS011;38480;52.724;6.436;2023-12-20T11:26:11;11.57;;;3.13;;
52586;SDS011;38480;52.724;6.436;2023-12-20T11:28:37;10.73;;;1.63;;
52586;SDS011;38480;52.724;6.436;2023-12-20T11:31:03;19.70;;;1.93;;
52586;SDS011;38480;52.724;6.436;2023-12-20T11:33:30;17.70;;;2.83;;
52586;SDS011;38480;52.724;6.436;2023-12-20T11:35:56;20.63;;;3.30;;
52586;SDS011;38480;52.724;6.436;2023-12-20T11:38:24;14.73;;;3.17;;
52586;SDS011;38480;52.724;6.436;2023-12-20T11:40:50;19.77;;;4.90;;
52586;SDS011;38480;52.724;6.436;2023-12-20T11:43:32;16.77;;;3.10;;
52586;SDS011;38480;52.724;6.436;2023-12-20T11:46:04;20.17;;;2.80;;
52586;SDS011;38480;52.724;6.436;2023-12-20T11:48:37;14.85;;;2.72;;
52586;SDS011;38480;52.724;6.436;2023-12-20T11:51:11;15.33;;;2.30;;
52586;SDS011;38480;52.724;6.436;2023-12-20T11:53:37;12.95;;;2.22;;
52586;SDS011;38480;52.724;6.436;2023-12-20T11:56:05;15.57;;;2.43;;
52586;SDS011;38480;52.724;6.436;2023-12-20T11:58:31;11.27;;;2.20;;
52586;SDS011;38480;52.724;6.436;2023-12-20T12:00:57;20.30;;;2.50;;
52586;SDS011;38480;52.724;6.436;2023-12-20T12:03:23;16.80;;;3.53;;
52586;SDS011;38480;52.724;6.436;2023-12-20T12:05:50;14.80;;;2.07;;
52586;SDS011;38480;52.724;6.436;2023-12-20T12:08:18;14.23;;;3.93;;
52586;SDS011;38480;52.724;6.436;2023-12-20T12:10:45;9.93;;;2.00;;
52586;SDS011;38480;52.724;6.436;2023-12-20T12:13:11;13.27;;;1.83;;
52586;SDS011;38480;52.724;6.436;2023-12-20T12:15:39;11.20;;;1.70;;
52586;SDS011;38480;52.724;6.436;2023-12-20T12:18:07;14.03;;;1.83;;
52586;SDS011;38480;52.724;6.436;2023-12-20T12:20:33;15.70;;;2.50;;
52586;SDS011;38480;52.724;6.436;2023-12-20T12:23:05;12.13;;;2.03;;
52586;SDS011;38480;52.724;6.436;2023-12-20T12:25:33;18.67;;;4.17;;
52586;SDS011;38480;52.724;6.436;2023-12-20T12:28:00;13.07;;;3.43;;
52586;SDS011;38480;52.724;6.436;2023-12-20T12:30:26;21.63;;;2.83;;
52586;SDS011;38480;52.724;6.436;2023-12-20T12:32:53;15.00;;;1.93;;
52586;SDS011;38480;52.724;6.436;2023-12-20T12:35:19;17.83;;;2.70;;
52586;SDS011;38480;52.724;6.436;2023-12-20T12:37:46;12.87;;;2.03;;
52586;SDS011;38480;52.724;6.436;2023-12-20T12:40:12;20.90;;;3.80;;
52586;SDS011;38480;52.724;6.436;2023-12-20T12:42:39;17.17;;;2.33;;
52586;SDS011;38480;52.724;6.436;2023-12-20T12:45:05;15.27;;;2.63;;
52586;SDS011;38480;52.724;6.436;2023-12-20T12:47:32;11.43;;;1.83;;
52586;SDS011;38480;52.724;6.436;2023-12-20T12:49:58;21.07;;;2.40;;
52586;SDS011;38480;52.724;6.436;2023-12-20T12:52:24;10.47;;;2.13;;
52586;SDS011;38480;52.724;6.436;2023-12-20T12:54:51;15.70;;;2.67;;
52586;SDS011;38480;52.724;6.436;2023-12-20T12:57:17;17.50;;;2.90;;
52586;SDS011;38480;52.724;6.436;2023-12-20T12:59:44;19.23;;;3.37;;
52586;SDS011;38480;52.724;6.436;2023-12-20T13:02:11;14.10;;;1.70;;
52586;SDS011;38480;52.724;6.436;2023-12-20T13:04:38;12.13;;;2.30;;
52586;SDS011;38480;52.724;6.436;2023-12-20T13:07:04;20.07;;;3.40;;
52586;SDS011;38480;52.724;6.436;2023-12-20T13:09:30;15.23;;;2.33;;
52586;SDS011;38480;52.724;6.436;2023-12-20T13:11:56;19.27;;;3.63;;
52586;SDS011;38480;52.724;6.436;2023-12-20T13:14:23;10.73;;;2.27;;
52586;SDS011;38480;52.724;6.436;2023-12-20T13:16:49;9.63;;;2.80;;
52586;SDS011;38480;52.724;6.436;2023-12-20T13:19:15;15.30;;;2.50;;
52586;SDS011;38480;52.724;6.436;2023-12-20T13:21:41;17.53;;;3.23;;
52586;SDS011;38480;52.724;6.436;2023-12-20T13:24:07;12.63;;;1.77;;
52586;SDS011;38480;52.724;6.436;2023-12-20T13:26:33;15.23;;;3.07;;
52586;SDS011;38480;52.724;6.436;2023-12-20T13:28:59;10.63;;;2.63;;
52586;SDS011;38480;52.724;6.436;2023-12-20T13:31:26;19.27;;;2.30;;
52586;SDS011;38480;52.724;6.436;2023-12-20T13:33:52;13.13;;;2.60;;
52586;SDS011;38480;52.724;6.436;2023-12-20T13:36:18;16.53;;;2.27;;
52586;SDS011;38480;52.724;6.436;2023-12-20T13:38:44;14.93;;;2.60;;
52586;SDS011;38480;52.724;6.436;2023-12-20T13:41:10;21.90;;;6.93;;
52586;SDS011;38480;52.724;6.436;2023-12-20T13:43:36;12.70;;;2.07;;
52586;SDS011;38480;52.724;6.436;2023-12-20T13:46:03;31.30;;;10.40;;
52586;SDS011;38480;52.724;6.436;2023-12-20T13:48:29;22.10;;;4.40;;
52586;SDS011;38480;52.724;6.436;2023-12-20T13:50:55;26.03;;;7.03;;
52586;SDS011;38480;52.724;6.436;2023-12-20T13:53:21;23.33;;;4.70;;
52586;SDS011;38480;52.724;6.436;2023-12-20T13:55:47;24.60;;;3.10;;
52586;SDS011;38480;52.724;6.436;2023-12-20T13:58:14;15.40;;;3.03;;
52586;SDS011;38480;52.724;6.436;2023-12-20T14:00:40;16.63;;;4.23;;
52586;SDS011;38480;52.724;6.436;2023-12-20T14:03:06;25.37;;;4.50;;
52586;SDS011;38480;52.724;6.436;2023-12-20T14:05:33;24.63;;;3.50;;
52586;SDS011;38480;52.724;6.436;2023-12-20T14:08:00;17.57;;;3.53;;
52586;SDS011;38480;52.724;6.436;2023-12-20T14:10:26;19.53;;;3.57;;
52586;SDS011;38480;52.724;6.436;2023-12-20T14:12:53;19.30;;;3.87;;
52586;SDS011;38480;52.724;6.436;2023-12-20T14:15:19;23.60;;;4.57;;
52586;SDS011;38480;52.724;6.436;2023-12-20T14:17:45;17.63;;;4.27;;
52586;SDS011;38480;52.724;6.436;2023-12-20T14:20:12;18.97;;;3.43;;
52586;SDS011;38480;52.724;6.436;2023-12-20T14:22:38;33.47;;;3.93;;
52586;SDS011;38480;52.724;6.436;2023-12-20T14:25:08;19.27;;;3.30;;
52586;SDS011;38480;52.724;6.436;2023-12-20T14:27:36;27.47;;;4.50;;
52586;SDS011;38480;52.724;6.436;2023-12-20T14:30:02;27.13;;;5.60;;